Time;durP1;ratioP1;P1;durP2;ratioP2;P2;SDS_P1;SDS_P2;PMS_P1;PMS_P2;Temp;Humidity;BMP_temperature;BMP_pressure;BME280_temperature;BME280_humidity;BME280_pressure;Samples;Min_cycle;Max_cycle;Signal;HPM_P1;HPM_P2
2021/01/06 00:01:38;;;;;;;19.88;3.97;;;25.30;76.70;;;;;;4888491;29;20046;-91
2021/01/06 00:04:05;;;;;;;12.23;4.03;;;25.10;79.10;;;;;;4953285;29;20051;-93
2021/01/06 00:06:32;;;;;;;26.17;4.82;;;24.90;78.40;;;;;;4951494;29;20027;-93
2021/01/06 00:09:39;;;;;;;22.52;4.78;;;25.10;79.40;;;;;;4953952;29;20032;-93
2021/01/06 00:12:18;;;;;;;11.32;3.40;;;25.10;78.10;;;;;;4950126;29;20023;-92
2021/01/06 00:14:45;;;;;;;15.63;3.45;;;25.20;79.90;;;;;;4950744;29;20035;-91
2021/01/06 00:17:17;;;;;;;14.77;4.10;;;25.20;79.30;;;;;;4949455;29;20039;-92
2021/01/06 00:19:57;;;;;;;;;;;;;;;;;;;;;
2021/01/06 00:22:27;;;;;;;9.05;4.38;;;25.30;79.00;;;;;;4967383;29;20047;-91
2021/01/06 00:24:55;;;;;;;4.18;2.53;;;25.20;79.10;;;;;;4949252;29;20363;-91
2021/01/06 00:27:28;;;;;;;7.60;3.30;;;25.20;79.30;;;;;;4948953;29;20027;-91
2021/01/06 00:29:58;;;;;;;10.48;2.90;;;25.20;78.60;;;;;;4933737;29;20043;-92
2021/01/06 00:32:28;;;;;;;6.55;2.50;;;25.20;78.70;;;;;;4933696;29;20041;-91
2021/01/06 00:34:58;;;;;;;24.77;7.82;;;25.20;78.60;;;;;;4950663;29;20046;-92
2021/01/06 00:37:28;;;;;;;4.60;2.50;;;25.20;79.40;;;;;;4967395;29;20050;-93
2021/01/06 00:39:54;;;;;;;12.07;5.80;;;25.20;79.10;;;;;;4950075;29;20035;-92
2021/01/06 00:42:23;;;;;;;9.40;2.47;;;25.10;79.60;;;;;;4949883;29;20030;-92
2021/01/06 00:44:55;;;;;;;6.25;2.67;;;25.10;79.50;;;;;;4950438;29;20043;-94
2021/01/06 00:47:26;;;;;;;3.17;1.90;;;25.00;79.80;;;;;;4950944;29;20323;-94
2021/01/06 00:50:16;;;;;;;4.53;2.30;;;25.00;78.70;;;;;;4950213;29;20039;-93
2021/01/06 00:52:46;;;;;;;3.90;1.85;;;25.00;78.80;;;;;;4949791;29;20235;-88
2021/01/06 00:55:24;;;;;;;3.33;1.83;;;25.00;79.20;;;;;;4949641;29;20035;-90
2021/01/06 00:58:00;;;;;;;8.40;2.17;;;24.90;79.20;;;;;;4967509;29;20035;-94
2021/01/06 01:03:54;;;;;;;4.15;2.22;;;24.90;78.10;;;;;;4955872;29;20260;-93
2021/01/06 01:07:07;;;;;;;3.33;1.98;;;24.80;79.70;;;;;;4967084;29;20032;-94
2021/01/06 01:09:49;;;;;;;5.82;2.25;;;24.70;79.20;;;;;;4950854;29;20096;-91
2021/01/06 01:12:32;;;;;;;;;;;;;;;;;;;;;
2021/01/06 01:15:01;;;;;;;5.22;2.45;;;24.60;79.10;;;;;;4952710;29;20272;-90
2021/01/06 01:17:34;;;;;;;5.45;2.40;;;24.60;78.90;;;;;;4949300;29;20111;-90
2021/01/06 01:20:10;;;;;;;6.65;2.22;;;24.60;80.20;;;;;;4949357;29;20030;-88
2021/01/06 01:22:47;;;;;;;6.05;2.45;;;24.60;79.60;;;;;;4950726;29;20110;-89
2021/01/06 01:25:46;;;;;;;4.97;2.10;;;24.50;79.70;;;;;;4952462;29;20043;-90
2021/01/06 01:28:27;;;;;;;5.05;2.50;;;24.50;80.20;;;;;;4955842;29;20230;-89
2021/01/06 01:31:08;;;;;;;8.98;3.00;;;24.50;80.30;;;;;;4949600;29;20031;-90
2021/01/06 01:33:44;;;;;;;8.20;3.22;;;24.40;80.40;;;;;;4950832;29;20308;-89
2021/01/06 01:36:31;;;;;;;7.82;2.67;;;24.50;81.10;;;;;;4950913;29;20082;-89
2021/01/06 01:39:06;;;;;;;5.28;2.75;;;24.40;81.10;;;;;;4965523;29;20039;-90
2021/01/06 01:42:26;;;;;;;3.40;2.20;;;24.50;79.70;;;;;;4913462;29;20033;-91
2021/01/06 01:45:06;;;;;;;4.18;2.10;;;24.50;80.40;;;;;;4895605;29;20096;-90
2021/01/06 01:47:43;;;;;;;5.22;2.42;;;24.50;80.20;;;;;;4899006;29;20081;-89
2021/01/06 01:50:26;;;;;;;6.95;2.20;;;24.50;79.00;;;;;;4900413;29;20055;-87
2021/01/06 01:53:01;;;;;;;6.25;2.35;;;24.40;80.20;;;;;;4913080;29;20043;-86
2021/01/06 01:55:29;;;;;;;6.32;2.33;;;24.40;79.60;;;;;;4914337;29;20092;-88
2021/01/06 01:58:07;;;;;;;5.85;2.80;;;24.40;80.00;;;;;;4895694;29;20044;-87
2021/01/06 02:00:40;;;;;;;4.40;2.63;;;24.50;79.80;;;;;;4917194;29;20108;-89
2021/01/06 02:04:00;;;;;;;4.85;2.45;;;24.40;79.60;;;;;;4895931;29;20040;-90
2021/01/06 02:06:32;;;;;;;4.55;2.45;;;24.40;79.70;;;;;;4896916;29;20036;-89
2021/01/06 02:09:14;;;;;;;4.22;2.10;;;24.40;79.80;;;;;;4901621;29;20037;-88
2021/01/06 02:12:13;;;;;;;4.25;2.13;;;24.30;80.10;;;;;;4915977;29;20041;-88
2021/01/06 02:14:55;;;;;;;2.97;1.90;;;24.30;79.60;;;;;;4900318;29;20028;-88
2021/01/06 02:17:22;;;;;;;5.95;2.00;;;24.20;80.40;;;;;;4915634;29;20040;-88
2021/01/06 02:19:52;;;;;;;6.85;2.50;;;24.20;80.50;;;;;;4901224;29;20037;-89
2021/01/06 02:22:20;;;;;;;4.47;2.63;;;24.10;80.80;;;;;;4904139;29;20032;-91
2021/01/06 02:24:54;;;;;;;7.72;2.53;;;24.10;80.00;;;;;;4936778;28;20027;-92
2021/01/06 02:27:23;;;;;;;8.02;2.50;;;24.10;80.70;;;;;;4962623;29;20046;-87
2021/01/06 02:30:06;;;;;;;4.35;2.72;;;24.10;80.30;;;;;;4962049;29;20038;-89
2021/01/06 02:32:43;;;;;;;5.82;3.50;;;24.10;80.60;;;;;;4959435;29;20032;-92
2021/01/06 02:35:15;;;;;;;7.57;4.15;;;24.10;80.90;;;;;;4939418;29;20086;-90
2021/01/06 02:37:43;;;;;;;5.75;3.33;;;24.10;80.70;;;;;;4957444;29;20127;-92
2021/01/06 02:42:59;;;;;;;4.05;2.53;;;24.10;80.80;;;;;;4950017;29;20042;-92
2021/01/06 02:45:31;;;;;;;4.80;3.17;;;24.00;80.40;;;;;;4954058;29;20323;-92
2021/01/06 02:48:00;;;;;;;5.25;3.17;;;24.00;80.60;;;;;;4955515;29;20055;-93
2021/01/06 02:50:33;;;;;;;4.80;2.80;;;24.10;80.30;;;;;;4970403;29;20031;-92
2021/01/06 02:53:15;;;;;;;;;;;;;;;;;;;;;
2021/01/06 02:55:46;;;;;;;;;;;24.00;80.10;;;;;;4971117;28;20055;-94
2021/01/06 02:58:21;;;;;;;4.47;3.13;;;24.00;80.40;;;;;;4954535;29;19906;-92
2021/01/06 03:00:52;;;;;;;5.28;3.70;;;24.00;80.70;;;;;;4938367;29;20031;-92
2021/01/06 03:03:28;;;;;;;5.88;2.70;;;24.00;81.10;;;;;;4970176;29;20043;-92
2021/01/06 03:06:20;;;;;;;3.50;2.03;;;23.90;80.90;;;;;;4952024;29;20036;-92
2021/01/06 03:08:49;;;;;;;3.55;2.03;;;23.80;81.00;;;;;;4953228;29;20074;-91
2021/01/06 03:11:19;;;;;;;3.90;2.10;;;23.80;81.10;;;;;;4951995;29;20035;-92
2021/01/06 03:13:46;;;;;;;4.60;1.73;;;23.80;81.40;;;;;;4951478;29;20041;-90
2021/01/06 03:16:22;;;;;;;3.78;1.95;;;23.70;80.90;;;;;;4951669;29;20026;-91
2021/01/06 03:18:51;;;;;;;3.97;2.13;;;23.70;81.40;;;;;;4951441;29;20047;-91
2021/01/06 03:21:24;;;;;;;3.97;1.58;;;23.70;81.80;;;;;;4951578;29;20031;-91
2021/01/06 03:24:02;;;;;;;6.72;2.08;;;23.70;81.80;;;;;;4950910;29;20050;-91
2021/01/06 03:26:32;;;;;;;7.60;1.83;;;23.70;81.50;;;;;;4952902;29;20039;-92
2021/01/06 03:28:59;;;;;;;6.80;2.03;;;23.60;81.70;;;;;;4952549;29;20257;-92
2021/01/06 03:31:47;;;;;;;4.00;2.00;;;23.60;82.80;;;;;;4953217;29;20042;-90
2021/01/06 03:34:31;;;;;;;4.38;2.00;;;23.50;82.90;;;;;;4969123;29;20031;-91
2021/01/06 03:37:02;;;;;;;3.90;1.70;;;23.50;83.10;;;;;;4951180;29;20039;-92
2021/01/06 03:39:40;;;;;;;3.40;1.75;;;23.50;83.00;;;;;;4951730;29;20038;-93
2021/01/06 03:42:07;;;;;;;3.15;1.58;;;23.40;83.00;;;;;;4950722;29;20035;-93
2021/01/06 03:44:47;;;;;;;2.85;1.73;;;23.50;83.30;;;;;;4952114;29;20048;-93
2021/01/06 03:47:34;;;;;;;3.85;1.95;;;23.50;83.20;;;;;;4952602;29;20082;-93
2021/01/06 03:50:25;;;;;;;5.00;2.20;;;23.40;83.10;;;;;;4950720;29;20075;-93
2021/01/06 03:53:15;;;;;;;2.58;1.60;;;23.40;82.80;;;;;;4967024;29;20165;-93
2021/01/06 03:55:56;;;;;;;5.18;2.20;;;23.40;82.80;;;;;;4953908;28;20209;-92
2021/01/06 03:58:38;;;;;;;12.13;2.67;;;23.40;83.10;;;;;;4950969;29;20043;-92
2021/01/06 04:01:23;;;;;;;8.10;2.70;;;23.30;83.30;;;;;;4951169;29;20341;-95
2021/01/06 04:06:50;;;;;;;4.88;2.58;;;23.30;83.10;;;;;;4955733;28;20322;-94
2021/01/06 04:09:26;;;;;;;5.55;2.47;;;23.30;82.50;;;;;;4954037;29;20220;-95
2021/01/06 04:12:13;;;;;;;7.47;2.80;;;23.30;83.00;;;;;;4956711;29;20034;-94
2021/01/06 04:14:41;;;;;;;7.00;2.47;;;23.30;82.80;;;;;;4951819;29;20174;-95
2021/01/06 04:17:30;;;;;;;4.65;2.30;;;23.30;82.40;;;;;;4954232;28;20110;-94
2021/01/06 04:20:19;;;;;;;7.13;2.13;;;23.30;82.30;;;;;;4953932;29;20053;-94
2021/01/06 04:22:51;;;;;;;7.75;2.22;;;23.40;82.40;;;;;;4949222;29;20319;-91
2021/01/06 04:25:26;;;;;;;;;;;23.40;81.50;;;;;;4950522;29;20036;-92
2021/01/06 04:28:00;;;;;;;4.93;2.20;;;23.40;81.60;;;;;;4966068;29;19929;-94
2021/01/06 04:30:33;;;;;;;5.65;2.30;;;23.40;81.50;;;;;;4956698;29;20078;-95
2021/01/06 04:33:04;;;;;;;6.38;2.15;;;23.40;81.70;;;;;;4954188;29;20189;-95
2021/01/06 04:35:35;;;;;;;7.03;2.28;;;23.40;81.40;;;;;;4952324;29;20066;-89
2021/01/06 04:38:07;;;;;;;6.40;2.00;;;23.40;81.70;;;;;;4952000;29;20035;-93
2021/01/06 04:40:39;;;;;;;4.50;2.20;;;23.40;81.40;;;;;;4954632;29;20035;-94
2021/01/06 04:43:46;;;;;;;5.90;2.35;;;23.30;81.50;;;;;;4971387;29;20051;-93
2021/01/06 04:46:50;;;;;;;7.22;2.40;;;23.30;81.30;;;;;;4956767;29;20031;-94
2021/01/06 04:49:32;;;;;;;7.38;2.50;;;23.30;81.30;;;;;;4953828;29;20035;-94
2021/01/06 04:52:27;;;;;;;7.65;2.88;;;23.30;81.70;;;;;;4951791;29;20335;-93
2021/01/06 04:55:35;;;;;;;6.28;2.30;;;23.20;81.70;;;;;;4952786;29;20264;-95
2021/01/06 04:58:18;;;;;;;6.68;2.42;;;23.20;82.00;;;;;;4931832;29;20044;-93
2021/01/06 05:01:05;;;;;;;6.32;2.40;;;23.20;81.70;;;;;;4910970;29;20032;-94
2021/01/06 05:03:57;;;;;;;6.88;2.25;;;23.20;81.60;;;;;;4942691;29;20107;-94
2021/01/06 05:06:39;;;;;;;3.95;2.05;;;23.20;81.80;;;;;;4942939;29;20036;-93
2021/01/06 05:09:22;;;;;;;5.03;1.90;;;23.20;82.20;;;;;;4943495;29;20032;-93
2021/01/06 05:12:19;;;;;;;3.75;1.98;;;23.20;81.70;;;;;;4942501;29;20320;-92
2021/01/06 05:15:27;;;;;;;4.38;2.13;;;23.20;81.60;;;;;;4910445;29;20321;-92
2021/01/06 05:18:02;;;;;;;4.20;1.60;;;23.20;81.40;;;;;;4872941;29;20072;-94
2021/01/06 05:20:28;;;;;;;3.50;1.60;;;23.10;81.20;;;;;;4911186;29;20036;-94
2021/01/06 05:22:55;;;;;;;3.45;1.80;;;23.10;81.50;;;;;;4915379;29;20106;-93
2021/01/06 05:25:22;;;;;;;3.83;1.48;;;23.10;81.50;;;;;;4916832;29;20032;-92
2021/01/06 05:27:50;;;;;;;5.10;1.70;;;23.10;81.90;;;;;;4919910;29;20129;-91
2021/01/06 05:30:32;;;;;;;6.60;2.13;;;23.00;82.00;;;;;;4953750;29;20031;-92
2021/01/06 05:33:12;;;;;;;9.23;3.00;;;23.00;82.20;;;;;;4952796;29;20039;-92
2021/01/06 05:35:46;;;;;;;10.57;2.85;;;23.00;82.20;;;;;;4953074;29;20262;-92
2021/01/06 05:38:13;;;;;;;9.35;2.53;;;23.00;82.00;;;;;;4952422;29;20046;-91
2021/01/06 05:40:43;;;;;;;7.57;2.90;;;23.00;82.00;;;;;;4952520;29;20051;-90
2021/01/06 05:43:18;;;;;;;5.60;2.28;;;22.90;81.50;;;;;;4952502;29;20031;-92
2021/01/06 05:45:54;;;;;;;7.53;2.00;;;22.90;81.30;;;;;;4952296;29;20074;-92
2021/01/06 05:48:23;;;;;;;3.40;1.80;;;22.90;81.30;;;;;;4952409;29;20035;-91
2021/01/06 05:51:20;;;;;;;5.00;1.42;;;22.90;81.40;;;;;;4952759;29;20074;-91
2021/01/06 05:54:18;;;;;;;2.88;1.27;;;22.90;81.20;;;;;;4948147;29;20114;-91
2021/01/06 05:57:22;;;;;;;3.70;1.90;;;22.90;81.50;;;;;;4953204;29;20035;-91
2021/01/06 05:59:48;;;;;;;3.20;1.60;;;22.90;81.40;;;;;;4952650;29;20094;-92
2021/01/06 06:02:53;;;;;;;3.20;1.65;;;22.90;81.20;;;;;;4952034;29;20319;-92
2021/01/06 06:05:43;;;;;;;2.97;1.70;;;22.90;80.70;;;;;;4872918;29;20078;-91
2021/01/06 06:08:28;;;;;;;2.45;1.38;;;22.90;81.20;;;;;;4885651;29;20034;-92
2021/01/06 06:11:13;;;;;;;2.30;1.38;;;22.90;80.70;;;;;;4951869;29;20035;-91
2021/01/06 06:13:58;;;;;;;2.40;1.40;;;22.90;80.90;;;;;;4952007;29;20315;-91
2021/01/06 06:16:49;;;;;;;4.30;1.10;;;22.90;81.10;;;;;;4951858;29;20035;-91
2021/01/06 06:19:37;;;;;;;2.00;1.40;;;22.80;81.40;;;;;;4951991;29;20385;-93
2021/01/06 06:22:19;;;;;;;2.42;1.40;;;22.80;81.00;;;;;;4951658;28;20039;-91
2021/01/06 06:25:00;;;;;;;1.87;1.43;;;22.80;81.60;;;;;;4951859;29;20039;-90
2021/01/06 06:27:51;;;;;;;1.90;1.42;;;22.80;81.40;;;;;;4951493;29;20282;-92
2021/01/06 06:30:31;;;;;;;1.98;1.30;;;22.80;80.90;;;;;;4950995;29;20098;-91
2021/01/06 06:32:59;;;;;;;2.88;1.42;;;22.80;80.50;;;;;;4951310;29;20031;-91
2021/01/06 06:35:35;;;;;;;2.40;1.40;;;22.80;80.80;;;;;;4951461;29;20031;-90
2021/01/06 06:38:08;;;;;;;3.88;1.40;;;22.80;80.70;;;;;;4951353;29;20042;-91
2021/01/06 06:40:50;;;;;;;3.05;1.58;;;22.80;80.70;;;;;;4951320;29;20027;-92
2021/01/06 06:43:34;;;;;;;2.13;1.50;;;22.80;80.60;;;;;;4951493;29;20314;-91
2021/01/06 06:46:12;;;;;;;2.55;1.52;;;22.80;80.30;;;;;;4951191;29;20316;-91
2021/01/06 06:49:20;;;;;;;3.65;1.30;;;22.80;80.00;;;;;;4951940;29;20079;-91
2021/01/06 06:52:14;;;;;;;1.20;1.10;;;22.90;79.20;;;;;;4967426;29;20039;-91
2021/01/06 06:54:53;;;;;;;3.63;1.20;;;23.00;78.70;;;;;;4951477;29;20087;-91
2021/01/06 06:57:37;;;;;;;3.55;1.17;;;22.90;79.00;;;;;;4951211;29;20354;-91
2021/01/06 07:00:24;;;;;;;2.17;1.33;;;23.00;77.90;;;;;;4950926;29;20031;-91
2021/01/06 07:03:01;;;;;;;3.30;1.40;;;23.00;77.80;;;;;;4968216;29;20082;-91
2021/01/06 07:05:54;;;;;;;6.45;2.17;;;23.10;77.70;;;;;;4951224;29;20122;-93
2021/01/06 07:08:47;;;;;;;4.85;2.05;;;23.00;77.80;;;;;;4950900;29;20031;-93
2021/01/06 07:11:26;;;;;;;5.85;1.85;;;23.00;78.10;;;;;;4950775;29;20039;-92
2021/01/06 07:14:00;;;;;;;6.30;1.95;;;23.00;77.90;;;;;;4951032;29;20033;-93
2021/01/06 07:16:43;;;;;;;4.07;1.50;;;23.00;77.90;;;;;;4950779;29;20043;-92
2021/01/06 07:19:17;;;;;;;;;;;23.00;77.90;;;;;;4952308;29;20038;-92
2021/01/06 07:21:51;;;;;;;3.58;1.73;;;22.90;79.40;;;;;;4950701;29;20187;-92
2021/01/06 07:24:25;;;;;;;2.95;1.63;;;22.90;78.90;;;;;;4950666;28;20027;-92
2021/01/06 07:26:57;;;;;;;4.05;1.42;;;22.90;79.30;;;;;;4950694;29;20039;-93
2021/01/06 07:29:30;;;;;;;4.07;1.77;;;22.90;79.30;;;;;;4950598;29;20042;-93
2021/01/06 07:32:19;;;;;;;2.03;1.50;;;22.90;79.70;;;;;;4950322;29;20039;-92
2021/01/06 07:34:54;;;;;;;5.50;1.65;;;22.80;79.80;;;;;;4950350;29;20035;-90
2021/01/06 07:37:43;;;;;;;3.13;1.40;;;22.80;79.30;;;;;;4950125;29;20083;-91
2021/01/06 07:40:16;;;;;;;3.42;1.38;;;22.90;79.20;;;;;;4950321;29;20232;-93
2021/01/06 07:42:50;;;;;;;3.38;1.65;;;22.90;78.90;;;;;;4949783;29;20054;-93
2021/01/06 07:45:20;;;;;;;2.35;1.60;;;22.90;79.10;;;;;;4950321;29;20100;-93
2021/01/06 07:47:54;;;;;;;5.38;1.60;;;22.90;79.40;;;;;;4950351;29;20219;-93
2021/01/06 07:50:24;;;;;;;3.88;1.38;;;22.90;79.50;;;;;;4950312;29;20082;-94
2021/01/06 07:53:12;;;;;;;3.88;1.65;;;22.90;80.00;;;;;;4950076;29;20031;-95
2021/01/06 07:55:56;;;;;;;2.50;1.55;;;22.90;80.00;;;;;;4945095;29;20127;-94
2021/01/06 07:58:42;;;;;;;4.32;1.40;;;22.90;80.70;;;;;;4950806;29;20031;-93
2021/01/06 08:01:34;;;;;;;3.35;1.55;;;22.90;81.00;;;;;;4950177;29;20035;-92
2021/01/06 08:04:12;;;;;;;3.20;1.45;;;22.80;80.50;;;;;;4949937;29;20051;-94
2021/01/06 08:06:59;;;;;;;2.25;1.50;;;22.80;80.50;;;;;;4949709;29;20106;-92
2021/01/06 08:09:32;;;;;;;2.63;1.40;;;22.70;81.40;;;;;;4949693;29;20032;-93
2021/01/06 08:12:02;;;;;;;1.80;1.30;;;22.70;81.00;;;;;;4949579;29;20032;-94
2021/01/06 08:14:33;;;;;;;2.42;1.67;;;22.70;80.70;;;;;;4949671;29;20058;-92
2021/01/06 08:17:10;;;;;;;1.23;1.13;;;22.70;80.90;;;;;;4949550;29;20027;-93
2021/01/06 08:19:47;;;;;;;3.13;1.52;;;22.70;80.90;;;;;;4949731;29;20039;-93
2021/01/06 08:22:27;;;;;;;1.92;1.40;;;22.70;81.20;;;;;;4965466;29;20030;-93
2021/01/06 08:25:19;;;;;;;2.28;1.40;;;22.60;81.10;;;;;;4949215;29;20111;-91
2021/01/06 08:27:46;;;;;;;1.92;1.35;;;22.70;81.50;;;;;;4949324;29;20110;-92
2021/01/06 08:30:17;;;;;;;2.50;1.30;;;22.60;81.90;;;;;;4948954;29;20082;-92
2021/01/06 08:32:45;;;;;;;3.25;1.50;;;22.60;81.80;;;;;;4949367;29;20035;-92
2021/01/06 08:38:35;;;;;;;5.00;1.95;;;22.50;82.50;;;;;;4966832;29;20030;-93
2021/01/06 08:41:19;;;;;;;4.72;2.13;;;22.50;81.70;;;;;;4933623;29;20047;-92
2021/01/06 08:43:47;;;;;;;5.85;2.17;;;22.50;82.70;;;;;;4949463;29;20102;-91
2021/01/06 08:46:25;;;;;;;7.78;2.13;;;22.50;81.90;;;;;;4966298;29;20038;-92
2021/01/06 08:48:52;;;;;;;9.10;2.17;;;22.60;81.70;;;;;;4949257;29;20042;-92
2021/01/06 08:51:31;;;;;;;5.25;1.77;;;22.60;82.20;;;;;;4949122;29;20031;-92
2021/01/06 08:53:58;;;;;;;3.58;1.95;;;22.50;82.40;;;;;;4966421;28;20030;-92
2021/01/06 08:56:29;;;;;;;4.45;2.10;;;22.50;82.30;;;;;;4949028;29;20038;-93
2021/01/06 08:58:58;;;;;;;4.13;2.08;;;22.60;82.00;;;;;;4933528;29;20374;-93
2021/01/06 09:01:41;;;;;;;5.75;2.17;;;22.60;81.50;;;;;;4948917;29;20102;-92
2021/01/06 09:04:17;;;;;;;5.72;2.15;;;22.60;81.90;;;;;;4948840;29;20047;-93
2021/01/06 09:06:54;;;;;;;5.97;2.50;;;22.60;82.10;;;;;;4948439;29;20031;-93
2021/01/06 09:10:02;;;;;;;7.35;2.30;;;22.60;81.30;;;;;;4946164;29;20031;-93
2021/01/06 09:12:55;;;;;;;6.90;2.42;;;22.60;82.00;;;;;;4907349;29;20425;-94
2021/01/06 09:15:47;;;;;;;5.90;1.77;;;22.60;81.70;;;;;;4891597;29;20079;-91
2021/01/06 09:18:16;;;;;;;7.25;1.92;;;22.60;81.80;;;;;;4891412;29;20079;-93
2021/01/06 09:21:21;;;;;;;2.15;1.48;;;22.60;81.80;;;;;;4891650;29;20103;-93
2021/01/06 09:23:53;;;;;;;6.13;1.80;;;22.60;81.80;;;;;;4891534;29;20032;-93
2021/01/06 09:26:27;;;;;;;2.67;1.52;;;22.50;82.20;;;;;;4891593;29;20090;-92
2021/01/06 09:29:04;;;;;;;4.93;2.03;;;22.50;82.30;;;;;;4891691;29;20037;-93
2021/01/06 09:31:38;;;;;;;1.98;1.40;;;22.50;82.00;;;;;;4891969;29;20044;-92
2021/01/06 09:34:15;;;;;;;2.45;1.42;;;22.50;82.10;;;;;;4892157;29;20036;-93
2021/01/06 09:36:43;;;;;;;2.08;1.50;;;22.60;81.70;;;;;;4891838;29;20114;-93
2021/01/06 09:39:21;;;;;;;2.20;1.50;;;22.60;82.10;;;;;;4891451;29;20060;-94
2021/01/06 09:42:18;;;;;;;2.88;1.50;;;22.50;82.10;;;;;;4899215;29;20032;-92
2021/01/06 09:44:45;;;;;;;6.13;1.40;;;22.50;82.30;;;;;;4956150;29;20035;-93
2021/01/06 09:47:39;;;;;;;6.65;2.10;;;22.50;82.10;;;;;;4955971;29;20106;-91
2021/01/06 09:50:41;;;;;;;3.92;1.75;;;22.40;82.10;;;;;;4958894;29;20031;-91
2021/01/06 09:53:11;;;;;;;2.70;1.50;;;22.40;81.80;;;;;;4923176;29;20031;-96
2021/01/06 09:55:43;;;;;;;4.90;1.60;;;22.30;82.00;;;;;;4963036;28;20035;-96
2021/01/06 09:58:38;;;;;;;5.07;2.03;;;22.30;82.90;;;;;;4962101;28;20046;-92
2021/01/06 10:01:18;;;;;;;3.42;1.70;;;22.40;81.50;;;;;;4949621;29;20031;-93
2021/01/06 10:03:51;;;;;;;6.78;1.77;;;22.40;81.70;;;;;;4950073;29;20124;-93
2021/01/06 10:06:39;;;;;;;4.75;1.60;;;22.30;82.60;;;;;;4936184;29;20038;-91
2021/01/06 10:09:20;;;;;;;2.67;1.85;;;22.30;83.20;;;;;;4952930;29;20106;-95
2021/01/06 10:11:56;;;;;;;5.10;2.30;;;22.20;82.10;;;;;;4952503;29;20038;-95
2021/01/06 10:14:49;;;;;;;4.22;2.28;;;22.20;83.30;;;;;;4952653;29;20035;-94
2021/01/06 10:17:28;;;;;;;6.85;2.22;;;22.10;84.10;;;;;;4952245;29;20043;-93
2021/01/06 10:20:19;;;;;;;3.25;1.60;;;22.10;83.80;;;;;;4952158;29;20039;-93
2021/01/06 10:22:55;;;;;;;6.20;2.13;;;22.10;84.00;;;;;;4952509;29;20102;-93
2021/01/06 10:25:56;;;;;;;4.15;1.90;;;22.00;83.50;;;;;;4952111;29;20323;-94
2021/01/06 10:28:48;;;;;;;2.95;1.77;;;22.00;84.00;;;;;;4968334;29;20063;-94
2021/01/06 10:31:24;;;;;;;2.83;1.80;;;22.00;84.10;;;;;;4951907;29;20035;-91
2021/01/06 10:34:09;;;;;;;3.45;1.90;;;21.90;84.60;;;;;;4952253;29;20082;-91
2021/01/06 10:37:03;;;;;;;4.25;1.90;;;21.90;84.50;;;;;;4952533;29;20027;-92
2021/01/06 10:39:54;;;;;;;4.97;2.45;;;21.90;84.60;;;;;;4951251;29;20039;-92
2021/01/06 10:42:21;;;;;;;4.07;2.22;;;21.90;84.10;;;;;;4951396;29;20039;-93
2021/01/06 10:45:08;;;;;;;8.80;3.15;;;21.90;84.20;;;;;;4951444;29;20038;-91
2021/01/06 10:47:35;;;;;;;7.72;2.75;;;21.90;84.10;;;;;;4951576;29;20114;-92
2021/01/06 10:50:23;;;;;;;7.45;3.05;;;21.90;84.00;;;;;;4951490;29;20027;-92
2021/01/06 10:53:15;;;;;;;19.38;3.17;;;21.90;83.90;;;;;;4951345;29;20035;-92
2021/01/06 10:55:46;;;;;;;8.45;3.00;;;21.90;84.30;;;;;;4966923;29;20023;-93
2021/01/06 10:58:42;;;;;;;8.27;3.00;;;21.90;84.30;;;;;;4954273;29;20031;-90
2021/01/06 11:01:18;;;;;;;8.57;3.28;;;21.90;83.50;;;;;;4952505;29;20047;-91
2021/01/06 11:04:22;;;;;;;10.25;2.97;;;22.00;83.70;;;;;;4952794;29;20074;-91
2021/01/06 11:07:12;;;;;;;5.43;2.75;;;22.00;83.80;;;;;;4951674;29;20038;-91
2021/01/06 11:13:10;;;;;;;8.90;3.83;;;22.00;84.30;;;;;;4968427;28;20070;-91
2021/01/06 11:15:58;;;;;;;11.98;3.83;;;22.00;83.40;;;;;;4951340;29;20047;-90
2021/01/06 11:18:24;;;;;;;9.93;4.03;;;22.00;84.10;;;;;;4947214;29;20062;-91
2021/01/06 11:21:17;;;;;;;12.00;4.65;;;22.00;84.40;;;;;;4950401;29;20031;-94
2021/01/06 11:23:48;;;;;;;9.65;4.25;;;22.00;85.80;;;;;;4951250;29;20035;-92
2021/01/06 11:26:23;;;;;;;8.50;4.07;;;22.10;84.50;;;;;;4950459;29;20071;-92
2021/01/06 11:29:36;;;;;;;17.60;4.63;;;22.10;86.00;;;;;;4951279;29;20106;-93
2021/01/06 11:32:21;;;;;;;12.00;4.30;;;22.10;85.10;;;;;;4951756;29;20074;-93
2021/01/06 11:35:17;;;;;;;13.85;4.40;;;22.20;83.90;;;;;;4951433;29;20034;-93
2021/01/06 11:37:46;;;;;;;11.82;5.38;;;22.30;85.30;;;;;;4951361;29;20035;-92
2021/01/06 11:40:55;;;;;;;14.30;6.68;;;22.30;85.70;;;;;;4953127;29;20031;-91
2021/01/06 11:43:48;;;;;;;14.30;6.72;;;22.30;84.00;;;;;;4926950;29;20319;-92
2021/01/06 11:46:52;;;;;;;14.30;6.50;;;22.40;84.60;;;;;;4951911;29;20035;-92
2021/01/06 11:49:24;;;;;;;26.42;6.10;;;22.50;84.50;;;;;;4952356;29;20031;-92
2021/01/06 11:52:40;;;;;;;14.25;5.68;;;22.60;83.20;;;;;;4973058;29;20346;-96
2021/01/06 11:55:39;;;;;;;17.80;6.65;;;22.70;84.10;;;;;;4957699;29;20059;-94
2021/01/06 12:01:45;;;;;;;18.10;7.07;;;23.20;82.80;;;;;;4974006;29;20055;-94
2021/01/06 12:04:11;;;;;;;;;;;23.40;81.20;;;;;;4956309;29;20050;-96
2021/01/06 12:06:57;;;;;;;18.23;6.03;;;23.50;79.30;;;;;;4953675;29;19969;-96
2021/01/06 12:12:58;;;;;;;16.98;5.22;;;23.80;78.50;;;;;;5018589;23;20055;-93
2021/01/06 12:16:17;;;;;;;15.48;4.50;;;24.00;78.50;;;;;;4971135;29;20035;-94
2021/01/06 12:22:12;;;;;;;10.80;2.75;;;24.40;76.40;;;;;;4930335;29;20217;-94
2021/01/06 12:24:44;;;;;;;4.55;1.95;;;24.60;76.40;;;;;;4913962;29;20034;-96
2021/01/06 12:27:32;;;;;;;7.82;2.58;;;24.70;76.70;;;;;;4931857;29;20099;-96
2021/01/06 12:30:08;;;;;;;4.75;1.80;;;24.90;77.30;;;;;;4937543;29;20086;-93
2021/01/06 12:33:08;;;;;;;5.18;1.98;;;25.00;76.30;;;;;;4952479;29;20039;-94
2021/01/06 12:35:37;;;;;;;6.60;1.70;;;25.10;76.40;;;;;;4952918;29;20042;-94
2021/01/06 12:39:24;;;;;;;;;;;;;;;;;;;;;
2021/01/06 12:42:40;;;;;;;8.13;2.03;;;25.40;74.30;;;;;;5051365;23;20078;-93
2021/01/06 12:45:37;;;;;;;4.05;1.30;;;25.60;74.50;;;;;;4892862;29;20167;-96
2021/01/06 12:48:24;;;;;;;3.63;1.85;;;25.70;74.10;;;;;;4891621;29;20108;-95
2021/01/06 12:51:16;;;;;;;6.55;1.50;;;25.90;75.10;;;;;;4893386;29;20033;-95
2021/01/06 12:57:36;;;;;;;2.22;1.80;;;26.20;75.20;;;;;;4894293;29;20048;-95
2021/01/06 13:00:42;;;;;;;7.93;1.63;;;26.40;75.20;;;;;;4874607;29;20029;-96
2021/01/06 13:03:45;;;;;;;3.97;1.58;;;26.70;72.20;;;;;;4946904;29;20036;-95
2021/01/06 13:07:06;;;;;;;3.38;1.88;;;26.90;71.80;;;;;;4958789;29;20020;-96
2021/01/06 13:22:36;;;;;;;1.80;1.30;;;27.70;68.00;;;;;;4971170;29;20307;-96
2021/01/06 13:25:41;;;;;;;4.75;1.60;;;27.80;65.90;;;;;;4970344;28;20135;-96
2021/01/06 13:40:15;;;;;;;4.03;1.25;;;28.80;64.80;;;;;;4931338;29;20048;-96
2021/01/06 13:42:50;;;;;;;2.22;1.23;;;28.70;63.40;;;;;;4939578;29;20040;-96
2021/01/06 13:48:23;;;;;;;4.47;1.15;;;29.00;61.40;;;;;;4952101;29;20103;-95
2021/01/06 13:51:11;;;;;;;3.53;1.08;;;29.00;61.90;;;;;;4935216;29;20032;-96
2021/01/06 13:54:24;;;;;;;2.03;1.10;;;29.10;60.80;;;;;;4935624;29;20332;-95
2021/01/06 13:57:09;;;;;;;2.42;1.20;;;29.40;59.20;;;;;;4875667;29;20033;-96
2021/01/06 14:03:40;;;;;;;5.82;1.38;;;29.50;59.50;;;;;;4881826;29;20038;-96
2021/01/06 14:06:35;;;;;;;5.22;1.20;;;29.90;58.30;;;;;;4843575;29;20030;-92
2021/01/06 14:09:56;;;;;;;4.93;1.10;;;30.00;58.40;;;;;;4845505;29;20109;-93
2021/01/06 14:13:02;;;;;;;1.42;0.90;;;30.00;56.70;;;;;;4899965;29;20048;-94
2021/01/06 14:16:22;;;;;;;1.38;0.70;;;30.10;55.90;;;;;;4917509;29;20044;-94
2021/01/06 14:22:41;;;;;;;8.98;1.70;;;30.10;55.90;;;;;;4956043;29;20038;-94
2021/01/06 14:33:22;;;;;;;3.80;1.67;;;30.70;55.30;;;;;;4968933;29;20095;-95
2021/01/06 14:40:39;;;;;;;1.63;1.00;;;31.50;53.00;;;;;;4918387;29;20047;-96
2021/01/06 14:50:58;;;;;;;1.13;0.80;;;32.20;51.80;;;;;;5080161;23;20118;-93
2021/01/06 14:54:19;;;;;;;1.85;1.10;;;32.20;49.40;;;;;;4931330;29;20036;-93
2021/01/06 14:57:25;;;;;;;6.65;1.05;;;32.20;49.60;;;;;;4916489;29;20047;-92
2021/01/06 15:00:45;;;;;;;4.32;1.50;;;32.00;49.80;;;;;;4921898;29;20098;-96
2021/01/06 15:03:43;;;;;;;2.10;1.30;;;32.30;49.40;;;;;;4939444;29;20050;-95
2021/01/06 15:06:53;;;;;;;5.57;4.10;;;32.60;52.00;;;;;;4958563;29;20027;-96
2021/01/06 15:10:14;;;;;;;16.55;11.85;;;32.60;51.20;;;;;;4954347;29;20031;-95
2021/01/06 15:13:23;;;;;;;27.55;20.20;;;33.30;48.90;;;;;;4955621;29;20032;-94
2021/01/06 15:16:18;;;;;;;7.85;3.65;;;33.70;49.60;;;;;;4954709;29;20082;-95
2021/01/06 15:19:17;;;;;;;3.33;1.90;;;33.10;49.10;;;;;;4956644;29;20054;-96
2021/01/06 15:22:16;;;;;;;2.28;1.38;;;33.00;49.70;;;;;;4897185;29;20033;-96
2021/01/06 15:24:55;;;;;;;4.32;1.58;;;33.60;51.40;;;;;;4876451;29;20083;-96
2021/01/06 15:27:24;;;;;;;5.60;1.42;;;33.90;49.00;;;;;;4931305;29;20046;-93
2021/01/06 15:30:28;;;;;;;4.13;2.00;;;33.90;49.30;;;;;;4934305;29;20042;-94
2021/01/06 15:33:38;;;;;;;3.90;1.70;;;34.20;51.50;;;;;;4936429;29;20036;-95
2021/01/06 15:36:17;;;;;;;3.00;1.55;;;33.90;47.20;;;;;;4859399;29;20037;-95